Main page
METAR-TAF:

METAR-TAF

Airports :

Hohenfels, Germany

latitude: 49-13N, longitude: 011-50E, elevation: 442 m

Current weather observation

The report was made 1 hour and 4 minutes ago, at 22:56 UTC
Calm wind
Temperature 17°C
Humidity 77%
Pressure 1013 hPa
Visibility 10 km or more
Scattered clouds at a height of 7500 ft

METAR: ETIH 202256Z AUTO 00000KT 9999 SCT075 17/13 A2990 RMK AO2 SLP108 T01730128 403000102 $

Time: 02:00 (00:00 UTC)


TAF: missing

Weather observations and forecasts of more than 4000 airports (METAR and TAF reports).

The available stations are represented by yellow and red dots on the map.

Hover mouse over dot to see the name of the station.

Then click to see weather observations and forecasts.

To change the map : click on the green buttons with a black cross to zoom in, on the green button with a dash to zoom out, or on the green arrows for adjacent maps.


METAR-TAF: